Time;durP1;ratioP1;P1;durP2;ratioP2;P2;SDS_P1;SDS_P2;PMS_P1;PMS_P2;Temp;Humidity;BMP_temperature;BMP_pressure;BME280_temperature;BME280_humidity;BME280_pressure;Samples;Min_cycle;Max_cycle;Signal;HPM_P1;HPM_P2
2022/05/26 00:00:30;;;;;;;17.73;7.22;;;19.80;99.90;;;;;;5029125;28;20044;-74
2022/05/26 00:02:56;;;;;;;16.42;7.47;;;20.00;99.90;;;;;;5042802;28;20038;-74
2022/05/26 00:05:22;;;;;;;20.45;7.60;;;19.40;99.90;;;;;;5032878;28;20045;-73
2022/05/26 00:07:47;;;;;;;15.85;7.30;;;20.20;99.90;;;;;;5031674;28;20049;-75
2022/05/26 00:10:13;;;;;;;19.75;6.82;;;19.30;99.90;;;;;;5042088;28;20049;-75
2022/05/26 00:12:39;;;;;;;19.08;8.18;;;19.30;99.90;;;;;;5046083;28;20501;-75
2022/05/26 00:15:06;;;;;;;18.45;7.57;;;19.60;99.90;;;;;;5025967;28;20083;-75
2022/05/26 00:17:32;;;;;;;18.48;7.68;;;19.90;99.90;;;;;;5048800;28;20510;-76
2022/05/26 00:19:58;;;;;;;18.40;7.95;;;19.10;99.90;;;;;;5050173;28;20047;-76
2022/05/26 00:22:25;;;;;;;20.45;6.72;;;19.30;99.90;;;;;;5047768;28;20060;-74
2022/05/26 00:24:51;;;;;;;20.40;6.72;;;20.10;99.90;;;;;;5014991;28;20100;-74
2022/05/26 00:27:17;;;;;;;20.88;7.32;;;19.10;99.90;;;;;;5031142;28;20037;-74
2022/05/26 00:29:43;;;;;;;20.42;6.80;;;19.20;99.90;;;;;;5012429;28;20043;-75
2022/05/26 00:32:09;;;;;;;16.80;6.70;;;19.90;99.90;;;;;;5031541;28;20404;-74
2022/05/26 00:34:35;;;;;;;16.98;6.30;;;19.80;99.90;;;;;;5011698;28;20037;-75
2022/05/26 00:37:02;;;;;;;22.23;7.57;;;19.00;99.90;;;;;;5048823;28;20041;-74
2022/05/26 00:39:28;;;;;;;19.33;7.78;;;19.00;99.90;;;;;;5042754;28;20044;-74
2022/05/26 00:42:01;;;;;;;20.50;6.97;;;19.90;99.90;;;;;;5049016;28;20040;-75
2022/05/26 00:44:27;;;;;;;18.80;6.82;;;19.60;99.90;;;;;;5023787;28;20029;-75
2022/05/26 00:47:20;;;;;;;18.65;6.88;;;19.70;99.90;;;;;;5012837;28;20385;-74
2022/05/26 00:49:51;;;;;;;20.63;7.68;;;19.80;99.90;;;;;;5044852;28;20154;-74
2022/05/26 00:52:21;;;;;;;19.20;6.68;;;18.80;99.90;;;;;;5034507;28;20059;-76
2022/05/26 00:54:50;;;;;;;19.17;6.80;;;19.50;99.90;;;;;;5050741;28;20045;-75
2022/05/26 00:57:24;;;;;;;26.33;8.45;;;19.00;99.90;;;;;;5052868;28;20048;-75
2022/05/26 01:00:02;;;;;;;17.15;6.68;;;19.20;99.90;;;;;;5052602;28;20437;-75
2022/05/26 01:02:34;;;;;;;21.98;7.30;;;18.90;99.90;;;;;;5033817;28;20201;-75
2022/05/26 01:05:03;;;;;;;20.02;6.95;;;18.90;99.90;;;;;;5028166;28;20116;-74
2022/05/26 01:07:36;;;;;;;19.40;6.78;;;19.50;99.90;;;;;;5052483;28;20049;-74
2022/05/26 01:10:03;;;;;;;28.55;8.50;;;18.80;99.90;;;;;;5034798;28;20091;-75
2022/05/26 01:12:28;;;;;;;24.67;8.40;;;19.60;99.90;;;;;;5051769;28;20088;-75
2022/05/26 01:15:04;;;;;;;20.20;7.50;;;19.50;99.90;;;;;;5028759;28;20103;-74
2022/05/26 01:17:55;;;;;;;22.25;8.23;;;19.40;99.90;;;;;;5048680;28;20732;-74
2022/05/26 01:20:38;;;;;;;22.25;7.32;;;19.60;99.90;;;;;;5021669;28;20049;-73
2022/05/26 01:23:28;;;;;;;19.95;7.60;;;19.50;99.90;;;;;;5049111;28;20041;-73
2022/05/26 01:26:11;;;;;;;24.67;7.57;;;18.80;99.90;;;;;;5033177;28;20033;-73
2022/05/26 01:28:56;;;;;;;25.00;7.65;;;19.60;99.90;;;;;;5035827;28;20535;-73
2022/05/26 01:31:47;;;;;;;20.67;7.70;;;19.00;99.90;;;;;;5051907;28;20481;-74
2022/05/26 01:34:41;;;;;;;24.58;7.38;;;19.50;99.90;;;;;;5048482;28;20041;-74
2022/05/26 01:37:24;;;;;;;28.10;7.50;;;19.20;99.90;;;;;;5048846;28;20072;-74
2022/05/26 01:40:02;;;;;;;24.88;6.97;;;19.40;99.90;;;;;;5051778;28;20044;-75
2022/05/26 01:42:55;;;;;;;20.60;6.10;;;18.80;99.90;;;;;;5051779;28;20565;-74
2022/05/26 01:45:57;;;;;;;28.40;8.20;;;19.40;99.90;;;;;;5034352;28;20495;-74
2022/05/26 01:48:42;;;;;;;23.23;7.20;;;19.30;99.90;;;;;;5016917;28;20049;-73
2022/05/26 01:51:20;;;;;;;28.77;6.97;;;18.80;99.90;;;;;;5032217;28;20037;-75
2022/05/26 01:53:55;;;;;;;19.88;6.43;;;19.20;99.90;;;;;;5040337;28;20544;-76
2022/05/26 01:57:15;;;;;;;21.65;6.25;;;19.30;99.90;;;;;;5030716;28;20068;-75
2022/05/26 01:59:48;;;;;;;18.13;5.50;;;19.00;99.90;;;;;;4999422;28;20389;-76
2022/05/26 02:02:26;;;;;;;18.80;4.90;;;18.80;99.90;;;;;;5031226;28;20107;-74
2022/05/26 02:04:57;;;;;;;19.33;6.38;;;19.00;99.90;;;;;;5026935;28;20033;-74
2022/05/26 02:08:14;;;;;;;16.95;5.20;;;18.50;99.90;;;;;;5033752;28;20140;-73
2022/05/26 02:10:55;;;;;;;21.27;5.40;;;18.40;99.90;;;;;;5013574;28;20072;-73
2022/05/26 02:13:33;;;;;;;17.20;5.22;;;18.30;99.90;;;;;;5012525;28;20049;-74
2022/05/26 02:16:31;;;;;;;21.02;5.55;;;19.00;99.90;;;;;;5039213;28;20045;-74
2022/05/26 02:19:29;;;;;;;18.70;5.28;;;18.70;99.90;;;;;;5031027;28;20059;-74
2022/05/26 02:22:23;;;;;;;23.40;6.57;;;18.60;99.90;;;;;;5050880;28;20400;-74
2022/05/26 02:25:10;;;;;;;20.08;5.93;;;18.40;99.90;;;;;;5047049;28;20033;-74
2022/05/26 02:27:37;;;;;;;28.35;6.80;;;18.80;99.90;;;;;;5036959;28;20073;-73
2022/05/26 02:30:07;;;;;;;25.75;7.15;;;18.10;99.90;;;;;;5031366;28;20470;-72
2022/05/26 02:32:43;;;;;;;23.27;6.78;;;18.20;99.90;;;;;;5031281;28;20466;-73
2022/05/26 02:35:18;;;;;;;23.08;6.07;;;18.20;99.90;;;;;;5032831;28;20076;-73
2022/05/26 02:37:47;;;;;;;23.65;6.50;;;18.70;99.90;;;;;;5031186;28;20052;-73
2022/05/26 02:40:14;;;;;;;25.27;6.65;;;18.00;99.90;;;;;;5030451;28;20096;-73
2022/05/26 02:42:48;;;;;;;28.75;7.35;;;18.80;99.90;;;;;;5044873;28;20432;-74
2022/05/26 02:45:18;;;;;;;21.73;6.57;;;18.20;99.90;;;;;;5048917;28;20040;-73
2022/05/26 02:47:56;;;;;;;19.38;6.00;;;18.50;99.90;;;;;;5032576;28;20489;-73
2022/05/26 02:50:34;;;;;;;30.02;7.22;;;18.00;99.90;;;;;;5050349;28;20104;-73
2022/05/26 02:53:18;;;;;;;25.98;6.47;;;18.50;99.90;;;;;;5050733;28;20044;-73
2022/05/26 02:56:08;;;;;;;26.80;6.47;;;18.10;99.90;;;;;;5032724;28;20036;-74
2022/05/26 02:58:57;;;;;;;23.35;6.15;;;18.00;99.90;;;;;;5045465;28;20435;-75
2022/05/26 03:01:40;;;;;;;25.13;6.55;;;18.60;99.90;;;;;;5028408;28;20047;-74
2022/05/26 03:04:20;;;;;;;30.23;6.25;;;18.40;99.90;;;;;;5033653;28;20146;-74
2022/05/26 03:06:55;;;;;;;21.00;6.10;;;18.10;99.90;;;;;;5048014;28;20373;-73
2022/05/26 03:09:21;;;;;;;27.55;6.70;;;18.20;99.90;;;;;;5018633;28;20052;-74
2022/05/26 03:11:58;;;;;;;21.95;5.97;;;18.30;99.90;;;;;;5048105;28;20084;-73
2022/05/26 03:14:25;;;;;;;21.20;6.05;;;17.90;99.90;;;;;;5048594;28;20040;-75
2022/05/26 03:16:51;;;;;;;22.85;6.95;;;17.90;99.90;;;;;;5049021;28;20044;-72
2022/05/26 03:19:18;;;;;;;21.35;5.55;;;18.40;99.90;;;;;;5030165;28;20098;-73
2022/05/26 03:21:44;;;;;;;21.70;6.35;;;18.00;99.90;;;;;;5048374;28;20132;-72
2022/05/26 03:24:10;;;;;;;22.08;6.10;;;17.70;99.90;;;;;;5049601;28;20124;-72
2022/05/26 03:26:36;;;;;;;19.13;5.25;;;18.10;99.90;;;;;;5018735;28;20047;-71
2022/05/26 03:29:03;;;;;;;22.55;6.00;;;18.00;99.90;;;;;;5047648;28;20037;-71
2022/05/26 03:31:30;;;;;;;21.63;5.88;;;18.30;99.90;;;;;;5039112;28;20048;-71
2022/05/26 03:42:11;;;;;;;25.30;5.65;;;18.40;99.90;;;;;;5046447;28;20126;-70
2022/05/26 03:44:37;;;;;;;19.55;5.57;;;18.40;99.90;;;;;;5032752;28;20041;-73
2022/05/26 03:47:03;;;;;;;23.58;6.25;;;17.90;99.90;;;;;;5048847;28;20045;-73
2022/05/26 03:49:29;;;;;;;27.67;6.00;;;18.10;99.90;;;;;;5014749;28;20049;-73
2022/05/26 03:51:57;;;;;;;19.42;5.68;;;18.30;99.90;;;;;;5044814;28;20086;-73
2022/05/26 03:54:23;;;;;;;19.98;4.57;;;17.90;99.90;;;;;;5031857;28;20036;-71
2022/05/26 03:56:49;;;;;;;19.58;4.90;;;17.90;99.90;;;;;;5049083;28;20688;-72
2022/05/26 03:59:15;;;;;;;24.33;5.05;;;18.00;99.90;;;;;;5030259;28;20413;-73
2022/05/26 04:01:41;;;;;;;12.85;3.90;;;18.30;99.90;;;;;;5048760;28;20067;-74
2022/05/26 04:04:07;;;;;;;15.98;4.00;;;18.30;99.90;;;;;;5048251;28;20048;-72
2022/05/26 04:06:33;;;;;;;11.30;3.75;;;17.70;99.90;;;;;;5048777;28;20167;-74
2022/05/26 04:08:59;;;;;;;16.17;4.03;;;18.20;99.90;;;;;;5030829;28;20053;-74
2022/05/26 04:11:25;;;;;;;12.95;3.80;;;17.60;99.90;;;;;;5027547;28;20041;-74
2022/05/26 04:13:54;;;;;;;12.77;3.33;;;18.20;99.90;;;;;;4996131;28;20041;-74
2022/05/26 04:16:21;;;;;;;12.80;3.92;;;18.30;99.90;;;;;;5016228;28;20044;-74
2022/05/26 04:18:46;;;;;;;12.65;3.42;;;18.20;99.90;;;;;;5047959;28;20723;-74
2022/05/26 04:21:13;;;;;;;9.18;2.60;;;17.50;99.90;;;;;;5047622;28;20076;-73
2022/05/26 04:23:39;;;;;;;7.47;2.90;;;18.00;99.90;;;;;;5029297;28;20403;-73
2022/05/26 04:26:06;;;;;;;10.20;2.75;;;17.90;99.90;;;;;;5048278;28;20553;-74
2022/05/26 04:28:33;;;;;;;10.80;2.50;;;17.50;99.90;;;;;;5050040;28;20073;-74
2022/05/26 04:30:58;;;;;;;13.57;2.72;;;17.70;99.90;;;;;;5052382;28;20045;-74
2022/05/26 04:33:25;;;;;;;8.30;2.58;;;17.80;99.90;;;;;;5028675;28;20033;-73
2022/05/26 04:35:51;;;;;;;10.00;2.65;;;17.60;99.90;;;;;;5000856;28;20068;-75
2022/05/26 04:38:18;;;;;;;10.82;2.17;;;17.30;99.90;;;;;;5040193;28;20072;-72
2022/05/26 04:40:45;;;;;;;8.45;2.22;;;17.60;99.90;;;;;;5023579;28;20479;-73
2022/05/26 04:43:11;;;;;;;8.15;1.85;;;17.10;99.90;;;;;;5043977;28;20064;-72
2022/05/26 04:45:37;;;;;;;10.40;2.15;;;16.90;99.90;;;;;;5034662;28;20036;-72
2022/05/26 04:48:03;;;;;;;7.20;2.38;;;17.20;99.90;;;;;;5052098;28;20044;-72
2022/05/26 04:50:29;;;;;;;11.80;2.45;;;16.70;99.90;;;;;;5051786;28;20041;-71
2022/05/26 04:52:55;;;;;;;5.72;1.73;;;17.10;99.90;;;;;;5030023;28;20040;-72
2022/05/26 04:55:20;;;;;;;8.93;1.52;;;17.00;99.90;;;;;;5016424;28;20045;-71
2022/05/26 04:57:48;;;;;;;5.60;1.95;;;16.40;99.90;;;;;;5051443;28;20045;-72
2022/05/26 05:00:16;;;;;;;7.85;1.55;;;16.40;99.90;;;;;;5047149;28;20045;-72
2022/05/26 05:02:42;;;;;;;6.10;1.48;;;16.70;99.90;;;;;;5052137;28;20472;-72
2022/05/26 05:05:09;;;;;;;5.15;1.80;;;16.50;99.90;;;;;;5031910;28;20029;-73
2022/05/26 05:07:35;;;;;;;7.22;1.75;;;16.50;99.90;;;;;;5012522;28;20041;-71
2022/05/26 05:10:00;;;;;;;3.30;1.55;;;16.40;99.90;;;;;;5048023;28;20037;-72
2022/05/26 05:12:26;;;;;;;6.30;1.88;;;16.00;99.90;;;;;;5044745;28;20048;-73
2022/05/26 05:14:54;;;;;;;4.70;1.60;;;16.30;99.90;;;;;;5049291;28;20045;-74
2022/05/26 05:17:21;;;;;;;8.18;1.83;;;15.80;99.90;;;;;;5049564;28;20045;-74
2022/05/26 05:19:48;;;;;;;7.78;1.70;;;16.10;99.90;;;;;;5028341;28;20041;-73
2022/05/26 05:22:14;;;;;;;5.78;1.50;;;15.70;99.90;;;;;;5023985;28;20045;-74
2022/05/26 05:24:45;;;;;;;11.45;1.92;;;15.80;99.90;;;;;;5049447;28;20040;-73
2022/05/26 05:27:23;;;;;;;10.35;2.30;;;15.90;99.90;;;;;;5050692;28;20052;-74
2022/05/26 05:29:52;;;;;;;8.27;1.60;;;15.60;99.90;;;;;;5049968;28;20124;-73
2022/05/26 05:32:42;;;;;;;8.45;1.40;;;15.90;99.90;;;;;;5029385;28;20045;-73
2022/05/26 05:35:12;;;;;;;6.25;1.45;;;15.70;99.90;;;;;;5023048;28;20037;-73
2022/05/26 05:37:38;;;;;;;7.60;1.60;;;15.50;99.90;;;;;;5049453;28;20049;-73
2022/05/26 05:40:05;;;;;;;9.40;2.17;;;15.50;99.90;;;;;;5034625;28;20128;-74
2022/05/26 05:42:30;;;;;;;4.53;1.30;;;15.40;99.90;;;;;;5048731;28;20397;-73
2022/05/26 05:44:57;;;;;;;6.60;1.48;;;15.70;99.90;;;;;;5030301;28;20037;-72
2022/05/26 05:47:23;;;;;;;4.03;1.50;;;15.30;99.90;;;;;;5035365;28;20050;-72
2022/05/26 05:49:49;;;;;;;6.82;1.73;;;15.40;99.90;;;;;;5033503;28;20536;-73
2022/05/26 05:52:18;;;;;;;4.90;1.75;;;15.50;99.90;;;;;;5028118;28;20041;-72
2022/05/26 05:54:44;;;;;;;5.82;1.30;;;15.30;99.90;;;;;;5033353;28;20040;-73
2022/05/26 05:57:10;;;;;;;9.20;1.80;;;15.40;99.90;;;;;;5027958;28;20033;-72
2022/05/26 05:59:35;;;;;;;8.18;1.50;;;15.30;99.90;;;;;;5036439;28;20355;-74
2022/05/26 06:02:02;;;;;;;5.63;1.20;;;15.20;99.90;;;;;;5040050;28;20048;-74
2022/05/26 06:04:28;;;;;;;6.18;1.60;;;15.40;99.90;;;;;;5025366;28;20036;-73
2022/05/26 06:06:54;;;;;;;7.50;1.65;;;15.40;99.90;;;;;;5045063;28;20048;-73
2022/05/26 06:09:20;;;;;;;3.55;1.02;;;15.30;99.90;;;;;;5033323;28;20060;-72
2022/05/26 06:11:47;;;;;;;6.43;1.60;;;15.20;99.90;;;;;;5050702;28;20053;-74
2022/05/26 06:14:13;;;;;;;9.27;2.08;;;15.40;99.90;;;;;;5020076;28;20107;-75
2022/05/26 06:16:39;;;;;;;5.50;1.25;;;15.30;99.90;;;;;;5040947;28;20081;-74
2022/05/26 06:19:05;;;;;;;5.25;1.27;;;15.30;99.90;;;;;;5012295;28;20037;-74
2022/05/26 06:21:32;;;;;;;6.57;1.50;;;15.50;99.90;;;;;;5034514;28;20041;-73
2022/05/26 06:23:58;;;;;;;5.40;1.63;;;15.70;99.90;;;;;;5045798;28;20599;-73
2022/05/26 06:26:25;;;;;;;4.97;1.30;;;15.60;99.90;;;;;;5049039;28;20453;-74
2022/05/26 06:31:35;;;;;;;6.03;1.48;;;15.70;99.90;;;;;;5049110;28;20045;-74
2022/05/26 06:39:30;;;;;;;4.87;1.10;;;16.00;99.90;;;;;;5027754;28;20044;-75
2022/05/26 06:42:08;;;;;;;8.35;1.67;;;15.90;99.90;;;;;;5046374;28;20040;-75
2022/05/26 06:44:37;;;;;;;4.93;1.25;;;16.20;99.90;;;;;;5043414;28;20445;-75
2022/05/26 06:47:15;;;;;;;5.28;1.30;;;16.40;99.90;;;;;;5043307;28;20091;-73
2022/05/26 06:49:41;;;;;;;5.25;1.17;;;16.20;99.90;;;;;;5039851;28;20853;-73
2022/05/26 06:52:08;;;;;;;3.60;1.48;;;16.30;99.90;;;;;;5047338;28;20112;-73
2022/05/26 06:54:38;;;;;;;4.65;1.20;;;16.00;99.90;;;;;;5041817;28;20037;-73
2022/05/26 06:57:05;;;;;;;6.30;1.10;;;16.50;99.90;;;;;;5033565;28;20037;-73
2022/05/26 06:59:31;;;;;;;5.32;1.05;;;16.60;99.90;;;;;;5028108;28;20053;-73
2022/05/26 07:01:57;;;;;;;5.03;1.35;;;16.60;99.90;;;;;;5047810;28;20090;-74
2022/05/26 07:04:23;;;;;;;4.45;1.30;;;16.20;99.90;;;;;;5032777;28;20033;-73
2022/05/26 07:06:51;;;;;;;4.35;1.00;;;16.40;99.90;;;;;;5031797;28;20076;-72
2022/05/26 07:09:17;;;;;;;6.13;1.58;;;16.20;99.90;;;;;;5032533;28;20048;-74
2022/05/26 07:11:44;;;;;;;3.83;1.10;;;16.30;99.90;;;;;;5027553;28;20045;-74
2022/05/26 07:14:10;;;;;;;3.63;1.00;;;16.30;99.90;;;;;;5032722;28;20128;-73
2022/05/26 07:16:36;;;;;;;4.05;1.10;;;16.00;99.90;;;;;;5033307;28;20102;-74
2022/05/26 07:19:02;;;;;;;3.85;1.10;;;16.10;99.90;;;;;;5049522;28;20457;-75
2022/05/26 07:21:29;;;;;;;2.95;1.38;;;16.10;99.90;;;;;;5008700;28;20041;-74
2022/05/26 07:23:54;;;;;;;4.85;0.90;;;16.20;99.90;;;;;;5026001;28;20045;-75
2022/05/26 07:26:21;;;;;;;5.15;1.30;;;16.10;99.90;;;;;;5039181;28;20052;-74
2022/05/26 07:28:48;;;;;;;4.95;1.15;;;16.30;99.90;;;;;;5022084;28;20362;-74
2022/05/26 07:31:14;;;;;;;4.70;1.17;;;16.10;99.90;;;;;;5022070;28;20473;-74
2022/05/26 07:33:40;;;;;;;2.72;1.08;;;16.30;99.90;;;;;;5038047;28;20408;-75
2022/05/26 07:36:06;;;;;;;4.65;1.23;;;16.20;99.90;;;;;;5007686;28;20044;-73
2022/05/26 07:41:26;;;;;;;5.57;1.23;;;16.20;99.90;;;;;;5045524;28;20044;-75
2022/05/26 07:43:57;;;;;;;3.30;1.23;;;16.30;99.90;;;;;;5028749;28;20052;-74
2022/05/26 07:46:24;;;;;;;4.80;1.30;;;16.60;99.90;;;;;;5010272;28;20154;-74
2022/05/26 07:48:50;;;;;;;5.47;1.40;;;16.90;99.90;;;;;;5028831;28;20183;-73
2022/05/26 07:51:19;;;;;;;3.97;1.33;;;17.00;99.90;;;;;;5028303;28;20036;-75
2022/05/26 07:53:45;;;;;;;3.50;1.20;;;17.10;99.90;;;;;;5020441;28;20055;-74
2022/05/26 07:56:11;;;;;;;10.07;2.30;;;17.20;99.90;;;;;;5039966;28;20069;-74
2022/05/26 07:58:37;;;;;;;6.30;1.40;;;17.20;99.90;;;;;;5047533;28;20408;-71
2022/05/26 08:01:03;;;;;;;6.07;1.20;;;17.10;99.90;;;;;;5051323;28;20040;-71
2022/05/26 08:03:30;;;;;;;3.97;1.23;;;16.90;99.90;;;;;;5035488;28;20401;-72
2022/05/26 08:05:56;;;;;;;8.32;1.50;;;17.00;99.90;;;;;;5049093;28;20047;-72
2022/05/26 08:08:22;;;;;;;4.97;1.23;;;17.10;99.90;;;;;;5033913;28;20056;-73
2022/05/26 08:10:48;;;;;;;3.45;1.30;;;17.00;99.90;;;;;;5052396;28;20044;-71
2022/05/26 08:13:14;;;;;;;4.45;1.33;;;17.10;99.90;;;;;;5021581;28;20409;-72
2022/05/26 08:15:42;;;;;;;4.07;1.20;;;17.10;99.90;;;;;;5030164;28;20481;-71
2022/05/26 08:18:08;;;;;;;3.70;0.98;;;17.20;99.90;;;;;;5043733;28;20044;-73
2022/05/26 08:20:34;;;;;;;4.50;1.15;;;17.00;99.90;;;;;;5032070;28;20045;-73
2022/05/26 08:22:59;;;;;;;6.00;1.33;;;16.90;99.90;;;;;;5013902;28;20383;-72
2022/05/26 08:25:26;;;;;;;4.00;0.95;;;16.90;99.90;;;;;;5043354;28;20125;-73
2022/05/26 08:27:52;;;;;;;5.95;1.10;;;16.80;99.90;;;;;;5017859;28;20090;-72
2022/05/26 08:30:18;;;;;;;3.83;1.00;;;16.90;99.90;;;;;;5033987;28;20033;-73
2022/05/26 08:32:44;;;;;;;5.82;1.63;;;17.10;99.90;;;;;;5036398;28;20036;-74
2022/05/26 08:35:11;;;;;;;6.20;1.42;;;17.00;99.90;;;;;;5015920;28;20124;-73
2022/05/26 08:37:37;;;;;;;5.40;1.23;;;17.20;99.90;;;;;;5052369;28;20128;-73
2022/05/26 08:40:04;;;;;;;2.65;1.00;;;17.10;99.90;;;;;;5052128;28;20044;-75
2022/05/26 08:42:34;;;;;;;6.97;1.88;;;17.40;99.90;;;;;;5012502;28;20037;-73
2022/05/26 08:45:12;;;;;;;6.07;1.10;;;17.40;99.90;;;;;;5015755;28;20045;-75
2022/05/26 08:47:48;;;;;;;4.25;1.23;;;17.30;99.90;;;;;;5033177;28;20040;-75
2022/05/26 08:50:32;;;;;;;5.90;1.45;;;17.60;99.90;;;;;;5033102;28;20425;-75
2022/05/26 08:53:08;;;;;;;3.03;1.00;;;17.70;99.90;;;;;;5032298;28;20079;-74
2022/05/26 08:55:36;;;;;;;4.97;1.20;;;17.70;99.90;;;;;;5032509;28;20044;-75
2022/05/26 08:58:06;;;;;;;3.38;0.85;;;18.00;99.90;;;;;;5031969;28;20045;-74
2022/05/26 09:00:33;;;;;;;3.10;1.02;;;17.90;99.90;;;;;;5032618;28;20054;-73
2022/05/26 09:03:00;;;;;;;5.25;1.00;;;17.90;99.90;;;;;;5041548;28;20049;-74
2022/05/26 09:05:34;;;;;;;6.22;1.30;;;17.80;99.90;;;;;;5052252;28;20080;-73
2022/05/26 09:13:46;;;;;;;3.85;1.15;;;17.80;99.90;;;;;;5038710;28;20041;-75
2022/05/26 09:16:13;;;;;;;4.93;1.13;;;17.80;99.90;;;;;;5035643;28;20094;-74
2022/05/26 09:18:40;;;;;;;3.63;1.23;;;17.50;99.90;;;;;;5052547;28;20080;-73
2022/05/26 09:21:28;;;;;;;3.78;0.90;;;17.70;99.90;;;;;;5019249;28;20067;-74
2022/05/26 09:24:18;;;;;;;7.25;1.08;;;17.90;99.90;;;;;;5051952;28;20052;-74
2022/05/26 09:26:47;;;;;;;6.15;1.35;;;17.70;99.90;;;;;;5052058;28;20040;-75
2022/05/26 09:29:13;;;;;;;4.18;0.93;;;17.60;99.90;;;;;;5052680;28;20036;-73
2022/05/26 09:31:49;;;;;;;5.15;1.10;;;17.40;99.90;;;;;;5035890;28;20461;-74
2022/05/26 09:34:19;;;;;;;6.18;1.20;;;17.50;99.90;;;;;;5036114;28;20485;-74
2022/05/26 09:36:50;;;;;;;1.83;0.80;;;18.20;99.90;;;;;;5035220;28;20045;-73
2022/05/26 09:39:25;;;;;;;5.88;0.95;;;18.30;99.90;;;;;;5052251;28;20748;-73
2022/05/26 09:41:56;;;;;;;3.30;0.93;;;19.10;99.90;;;;;;5051685;28;20120;-75
2022/05/26 09:44:46;;;;;;;3.30;0.75;;;19.30;99.90;;;;;;5035442;28;20048;-75
2022/05/26 09:47:37;;;;;;;4.40;1.05;;;19.40;99.90;;;;;;5052250;28;20037;-74
2022/05/26 09:50:10;;;;;;;8.05;1.30;;;19.90;99.90;;;;;;5035085;28;20646;-74
2022/05/26 09:52:45;;;;;;;3.58;0.93;;;19.70;99.90;;;;;;5052101;28;20045;-74
2022/05/26 09:55:10;;;;;;;4.35;1.20;;;19.10;99.90;;;;;;5051694;28;20051;-73
2022/05/26 09:57:36;;;;;;;3.90;1.02;;;19.00;99.90;;;;;;5035173;28;20041;-73
2022/05/26 10:00:15;;;;;;;2.17;0.90;;;19.30;99.90;;;;;;5034658;28;20052;-74
2022/05/26 10:02:41;;;;;;;4.57;1.48;;;18.80;99.90;;;;;;5051835;28;20396;-74
2022/05/26 10:05:18;;;;;;;4.32;1.05;;;18.60;99.90;;;;;;5034693;28;20123;-73
2022/05/26 10:08:12;;;;;;;3.28;1.00;;;18.30;99.90;;;;;;5047735;28;20390;-74
2022/05/26 10:10:52;;;;;;;4.57;0.80;;;19.10;99.90;;;;;;5033809;28;20080;-73
2022/05/26 10:13:31;;;;;;;3.60;1.10;;;19.40;99.90;;;;;;5030438;28;20049;-73
2022/05/26 10:16:05;;;;;;;1.23;0.73;;;19.20;99.90;;;;;;5013998;28;20351;-72
2022/05/26 10:19:06;;;;;;;2.15;0.80;;;19.20;99.90;;;;;;5013803;28;20048;-75
2022/05/26 10:21:54;;;;;;;2.72;0.70;;;19.00;99.90;;;;;;5030617;28;20470;-73
2022/05/26 10:24:53;;;;;;;2.75;0.80;;;19.30;99.90;;;;;;5013766;28;20088;-72
2022/05/26 10:27:33;;;;;;;2.15;0.70;;;19.70;99.90;;;;;;5029997;28;20045;-74
2022/05/26 10:30:24;;;;;;;4.93;1.10;;;19.60;99.90;;;;;;5030233;28;20593;-72
2022/05/26 10:33:11;;;;;;;3.13;0.90;;;19.70;99.90;;;;;;5013540;28;20052;-73
2022/05/26 10:35:42;;;;;;;3.58;0.95;;;19.30;99.90;;;;;;5030096;28;20046;-72
2022/05/26 10:38:39;;;;;;;3.40;1.00;;;18.80;99.90;;;;;;5029314;28;20151;-73
2022/05/26 10:41:17;;;;;;;3.20;0.93;;;19.40;99.90;;;;;;5029850;28;20063;-71
2022/05/26 10:44:01;;;;;;;2.90;1.25;;;19.50;99.90;;;;;;5029840;28;20060;-73
2022/05/26 10:46:30;;;;;;;1.57;0.70;;;19.80;99.90;;;;;;5029832;28;20120;-73
2022/05/26 10:49:13;;;;;;;3.20;1.05;;;19.40;99.90;;;;;;5029714;28;20474;-71
2022/05/26 10:51:49;;;;;;;4.43;1.13;;;19.40;99.90;;;;;;5030271;28;20432;-73
2022/05/26 10:54:26;;;;;;;3.55;1.10;;;19.30;99.90;;;;;;5029404;28;20045;-73
2022/05/26 10:57:16;;;;;;;4.70;1.20;;;19.30;99.90;;;;;;5029059;28;20124;-72
2022/05/26 10:59:54;;;;;;;4.90;1.00;;;19.60;99.90;;;;;;5029293;28;20053;-72
2022/05/26 11:02:22;;;;;;;3.17;0.93;;;19.90;99.90;;;;;;5029349;28;20099;-74
2022/05/26 11:05:27;;;;;;;4.95;1.30;;;20.20;99.90;;;;;;5029308;28;20071;-73
2022/05/26 11:08:31;;;;;;;5.73;1.20;;;20.50;99.90;;;;;;4972056;28;20158;-74
2022/05/26 11:11:03;;;;;;;4.43;1.00;;;20.60;99.90;;;;;;5012550;28;20664;-74
2022/05/26 11:13:50;;;;;;;2.03;1.00;;;20.40;99.90;;;;;;5012792;28;20118;-71
2022/05/26 11:19:44;;;;;;;4.43;1.05;;;20.40;99.90;;;;;;5029206;28;20049;-71
2022/05/26 11:22:13;;;;;;;3.70;1.10;;;19.90;99.90;;;;;;5028563;28;20124;-72
2022/05/26 11:24:39;;;;;;;5.45;1.20;;;20.20;99.90;;;;;;5012743;28;20037;-71
2022/05/26 11:27:09;;;;;;;2.35;1.00;;;20.30;99.90;;;;;;5012347;28;20069;-73
2022/05/26 11:29:44;;;;;;;10.18;1.83;;;20.40;99.90;;;;;;5028676;28;20087;-72
2022/05/26 11:37:59;;;;;;;3.85;1.05;;;19.20;99.90;;;;;;5039387;28;20064;-74
2022/05/26 11:40:33;;;;;;;3.90;1.05;;;19.40;99.90;;;;;;5048011;28;20428;-72
2022/05/26 11:43:00;;;;;;;3.40;1.30;;;19.50;99.90;;;;;;5031437;28;20045;-73
2022/05/26 11:45:36;;;;;;;5.32;1.20;;;19.50;99.90;;;;;;5032423;28;20116;-73
2022/05/26 11:48:26;;;;;;;3.60;1.13;;;19.10;99.90;;;;;;5032163;28;20037;-73
2022/05/26 11:50:57;;;;;;;2.63;0.90;;;18.80;99.90;;;;;;5048398;28;20127;-73
2022/05/26 11:53:45;;;;;;;5.03;1.08;;;19.00;99.90;;;;;;5048890;28;20128;-73
2022/05/26 11:56:27;;;;;;;5.63;1.15;;;18.80;99.90;;;;;;5028799;28;20158;-73
2022/05/26 11:59:42;;;;;;;3.05;1.10;;;19.10;99.90;;;;;;5028124;28;20060;-74
2022/05/26 12:02:07;;;;;;;2.30;0.80;;;19.00;99.90;;;;;;5012340;28;20160;-72
2022/05/26 12:04:36;;;;;;;5.93;1.30;;;19.40;99.90;;;;;;5029009;28;20125;-73
2022/05/26 12:07:23;;;;;;;3.03;1.10;;;19.60;99.90;;;;;;5028237;28;20053;-75
2022/05/26 12:09:57;;;;;;;5.40;1.40;;;19.60;99.90;;;;;;5012541;28;20049;-74
2022/05/26 12:12:22;;;;;;;5.07;1.20;;;19.50;99.90;;;;;;5012130;28;20041;-73
2022/05/26 12:14:50;;;;;;;5.90;1.30;;;19.50;99.90;;;;;;5012330;28;20153;-73
2022/05/26 12:17:33;;;;;;;3.35;1.10;;;19.40;99.90;;;;;;5028516;28;20142;-72
2022/05/26 12:20:11;;;;;;;3.15;1.30;;;19.00;99.90;;;;;;5028393;28;20077;-73
2022/05/26 12:22:52;;;;;;;3.40;1.58;;;19.00;99.90;;;;;;5028727;28;20129;-72
2022/05/26 12:25:26;;;;;;;5.32;1.42;;;19.00;99.90;;;;;;5028649;28;20034;-73
2022/05/26 12:27:53;;;;;;;3.97;1.27;;;19.20;99.90;;;;;;5028154;28;20171;-73
2022/05/26 12:31:00;;;;;;;4.35;1.33;;;19.70;99.90;;;;;;5012458;28;20740;-73
2022/05/26 12:33:53;;;;;;;6.57;1.30;;;19.70;99.90;;;;;;5028318;28;20083;-74
2022/05/26 12:36:56;;;;;;;2.97;1.30;;;19.50;99.90;;;;;;5028191;28;20056;-73
2022/05/26 12:39:43;;;;;;;4.93;1.08;;;19.50;99.90;;;;;;5025234;28;20057;-74
2022/05/26 12:42:47;;;;;;;8.30;1.25;;;19.30;99.90;;;;;;5027953;28;20072;-74
2022/05/26 12:45:30;;;;;;;5.40;1.42;;;19.10;99.90;;;;;;5027473;28;20069;-73
2022/05/26 12:48:04;;;;;;;5.30;1.02;;;19.00;99.90;;;;;;5015273;28;20507;-73
2022/05/26 12:50:31;;;;;;;;;;;19.10;99.90;;;;;;5015963;28;20056;-72
2022/05/26 12:52:59;;;;;;;5.18;1.25;;;19.10;99.90;;;;;;4999021;28;19971;-73
2022/05/26 12:55:38;;;;;;;3.75;1.45;;;19.40;99.90;;;;;;5015386;28;20037;-73
2022/05/26 12:58:20;;;;;;;5.45;1.38;;;19.50;99.90;;;;;;5015365;28;20129;-73
2022/05/26 13:00:56;;;;;;;3.30;1.02;;;19.10;99.90;;;;;;5015517;28;20052;-73
2022/05/26 13:03:36;;;;;;;3.60;1.13;;;19.30;99.90;;;;;;5015046;28;20092;-73
2022/05/26 13:06:07;;;;;;;8.10;1.45;;;19.80;99.90;;;;;;5015139;28;20033;-74
2022/05/26 13:09:01;;;;;;;5.68;1.40;;;19.30;99.90;;;;;;5015120;28;20115;-74
2022/05/26 13:11:33;;;;;;;3.95;1.33;;;19.80;99.90;;;;;;5031721;28;20409;-74
2022/05/26 13:14:07;;;;;;;2.83;1.20;;;19.50;99.90;;;;;;5031173;28;20088;-74
2022/05/26 13:16:39;;;;;;;4.50;1.15;;;19.40;99.90;;;;;;5031863;28;20052;-72
2022/05/26 13:19:11;;;;;;;5.20;1.05;;;19.30;99.90;;;;;;5031468;28;20327;-73
2022/05/26 13:21:38;;;;;;;4.18;1.00;;;19.40;99.90;;;;;;5031497;28;20049;-74
2022/05/26 13:24:04;;;;;;;2.45;1.00;;;19.20;99.90;;;;;;4998338;28;20479;-74
2022/05/26 13:26:31;;;;;;;4.60;1.20;;;19.00;99.90;;;;;;5031098;28;20048;-74
2022/05/26 13:29:07;;;;;;;2.42;0.90;;;18.80;99.90;;;;;;5031319;28;20051;-73
2022/05/26 13:34:17;;;;;;;3.22;1.00;;;18.70;99.90;;;;;;5016999;28;20056;-74
2022/05/26 13:36:47;;;;;;;3.28;1.00;;;18.80;99.90;;;;;;5014607;28;20441;-74
2022/05/26 13:39:31;;;;;;;2.42;0.90;;;18.80;99.90;;;;;;5030584;28;20041;-73
2022/05/26 13:41:58;;;;;;;4.80;1.60;;;18.70;99.90;;;;;;4997968;28;20084;-73
2022/05/26 13:44:35;;;;;;;2.55;0.90;;;18.50;99.90;;;;;;5014506;28;20444;-72
2022/05/26 13:47:05;;;;;;;3.15;1.00;;;18.50;99.90;;;;;;5030964;28;20064;-73
2022/05/26 13:50:03;;;;;;;3.78;1.30;;;18.60;99.90;;;;;;5014977;28;20048;-74